createdAt,value
2019-03-18T00:00:01.597Z,2.57
2019-03-18T00:02:32.398Z,2.50
2019-03-18T00:05:02.953Z,2.87
2019-03-18T00:07:52.777Z,3.70
2019-03-18T00:10:24.134Z,3.10
2019-03-18T00:12:55.286Z,2.50
2019-03-18T00:15:26.496Z,3.13
2019-03-18T00:17:57.020Z,2.63
2019-03-18T00:20:27.414Z,2.73
2019-03-18T00:22:58.801Z,2.47
2019-03-18T00:25:29.287Z,3.33
2019-03-18T00:27:59.672Z,2.90
2019-03-18T00:30:31.142Z,2.70
2019-03-18T00:33:03.325Z,3.10
2019-03-18T00:35:32.972Z,2.67
2019-03-18T00:38:07.650Z,2.80
2019-03-18T00:40:39.849Z,2.70
2019-03-18T00:43:10.228Z,2.20
2019-03-18T00:45:41.374Z,2.33
2019-03-18T00:48:11.897Z,2.57
2019-03-18T00:50:42.267Z,1.77
2019-03-18T00:53:13.019Z,2.33
2019-03-18T00:55:43.575Z,2.17
2019-03-18T00:58:14.240Z,2.20
2019-03-18T01:00:45.321Z,2.50
2019-03-18T01:03:15.695Z,3.33
2019-03-18T01:05:46.170Z,2.30
2019-03-18T01:08:18.599Z,3.60
2019-03-18T01:10:50.353Z,3.33
2019-03-18T01:13:20.734Z,3.30
2019-03-18T01:15:54.171Z,2.77
2019-03-18T01:21:06.295Z,1.93
2019-03-18T01:23:36.945Z,1.30
2019-03-18T01:26:08.394Z,2.40
2019-03-18T01:28:39.549Z,2.20
2019-03-18T01:31:10.734Z,1.30
2019-03-18T01:33:41.325Z,2.17
2019-03-18T01:36:12.468Z,1.87
2019-03-18T01:38:43.735Z,2.10
2019-03-18T01:41:14.121Z,2.20
2019-03-18T01:43:44.494Z,2.13
2019-03-18T01:46:15.080Z,2.80
2019-03-18T01:48:47.350Z,2.57
2019-03-18T01:51:17.737Z,2.80
2019-03-18T01:53:50.470Z,2.93
2019-03-18T01:56:21.746Z,2.10
2019-03-18T01:58:52.352Z,1.80
2019-03-18T02:01:23.874Z,2.90
2019-03-18T02:03:54.239Z,2.00
2019-03-18T02:06:24.735Z,2.13
2019-03-18T02:08:55.262Z,2.27
2019-03-18T02:11:25.686Z,2.00
2019-03-18T02:13:56.070Z,1.90
2019-03-18T02:16:26.496Z,1.87
2019-03-18T02:18:56.876Z,2.30
2019-03-18T02:21:27.529Z,2.33
2019-03-18T02:23:58.725Z,1.87
2019-03-18T02:26:32.158Z,2.00
2019-03-18T02:29:02.591Z,1.83
2019-03-18T02:31:32.981Z,1.80
2019-03-18T02:34:10.712Z,1.80
2019-03-18T02:36:41.038Z,1.63
2019-03-18T02:39:11.410Z,2.20
2019-03-18T02:41:42.238Z,1.53
2019-03-18T02:44:12.620Z,2.50
2019-03-18T02:46:42.999Z,1.80
2019-03-18T02:49:13.373Z,2.10
2019-03-18T02:51:43.798Z,1.83
2019-03-18T02:54:14.177Z,1.03
2019-03-18T02:56:44.640Z,1.40
2019-03-18T02:59:15.260Z,2.27
2019-03-18T03:01:53.216Z,1.87
2019-03-18T03:04:25.718Z,2.63
2019-03-18T03:06:57.069Z,1.80
2019-03-18T03:09:27.439Z,2.10
2019-03-18T03:11:58.111Z,2.27
2019-03-18T03:14:28.480Z,1.83
2019-03-18T03:16:58.878Z,2.43
2019-03-18T03:19:29.307Z,2.10
2019-03-18T03:21:59.561Z,2.33
2019-03-18T03:24:29.992Z,2.37
2019-03-18T03:27:00.405Z,2.70
2019-03-18T03:29:53.163Z,2.30
2019-03-18T03:32:23.602Z,1.87
2019-03-18T03:34:53.933Z,2.50
2019-03-18T03:37:25.729Z,1.93
2019-03-18T03:39:56.178Z,2.73
2019-03-18T03:42:26.681Z,2.50
2019-03-18T03:45:04.503Z,1.87
2019-03-18T03:47:34.950Z,2.37
2019-03-18T03:50:07.381Z,2.30
2019-03-18T03:52:38.447Z,2.97
2019-03-18T03:55:11.935Z,2.33
2019-03-18T03:57:42.656Z,2.37
2019-03-18T04:00:16.442Z,2.47
2019-03-18T04:02:47.760Z,1.80
2019-03-18T04:05:18.232Z,2.40
2019-03-18T04:07:48.613Z,1.97
2019-03-18T04:10:23.084Z,1.73
2019-03-18T04:12:53.506Z,2.00
2019-03-18T04:15:24.967Z,1.93
2019-03-18T04:17:58.164Z,1.60
2019-03-18T04:20:29.613Z,2.20
2019-03-18T04:23:00.743Z,1.97
2019-03-18T04:25:32.183Z,2.67
2019-03-18T04:28:02.555Z,2.30
2019-03-18T04:30:32.871Z,2.57
2019-03-18T04:33:04.100Z,2.57
2019-03-18T04:35:35.329Z,3.20
2019-03-18T04:38:05.558Z,1.87
2019-03-18T04:40:36.207Z,2.10
2019-03-18T04:43:07.361Z,2.40
2019-03-18T04:45:37.960Z,2.47
2019-03-18T04:48:08.346Z,2.53
2019-03-18T04:50:39.801Z,2.33
2019-03-18T04:53:16.320Z,2.50
2019-03-18T04:55:47.511Z,3.10
2019-03-18T04:58:22.189Z,2.87
2019-03-18T05:00:53.407Z,3.60
2019-03-18T05:03:43.094Z,4.37
2019-03-18T05:08:55.558Z,4.00
2019-03-18T05:11:27.001Z,3.87
2019-03-18T05:13:58.293Z,4.50
2019-03-18T05:16:29.316Z,3.30
2019-03-18T05:18:59.733Z,2.83
2019-03-18T05:21:30.773Z,3.47
2019-03-18T05:24:01.151Z,3.00
2019-03-18T05:26:31.578Z,2.90
2019-03-18T05:29:02.147Z,3.20
2019-03-18T05:31:33.353Z,3.00
2019-03-18T05:34:04.879Z,2.97
2019-03-18T05:36:35.239Z,2.80
2019-03-18T05:39:05.615Z,2.77
2019-03-18T05:41:35.986Z,2.23
2019-03-18T05:44:08.081Z,1.80
2019-03-18T05:46:38.018Z,2.43
2019-03-18T05:49:09.214Z,1.63
2019-03-18T05:51:59.012Z,2.30
2019-03-18T05:54:29.379Z,2.13
2019-03-18T05:57:00.181Z,2.07
2019-03-18T05:59:30.607Z,2.23
2019-03-18T06:02:00.984Z,1.83
2019-03-18T06:04:32.445Z,2.10
2019-03-18T06:07:02.870Z,1.80
2019-03-18T06:09:33.241Z,2.03
2019-03-18T06:12:03.613Z,1.83
2019-03-18T06:14:34.045Z,1.90
2019-03-18T06:17:04.434Z,1.97
2019-03-18T06:19:34.809Z,1.73
2019-03-18T06:22:07.652Z,1.80
2019-03-18T06:24:39.826Z,2.50
2019-03-18T06:27:11.007Z,1.57
2019-03-18T06:29:46.551Z,2.87
2019-03-18T06:32:23.980Z,1.93
2019-03-18T06:34:53.674Z,2.20
2019-03-18T06:37:24.046Z,2.03
2019-03-18T06:39:55.260Z,1.73
2019-03-18T06:42:25.645Z,1.87
2019-03-18T06:44:59.026Z,1.90
2019-03-18T06:47:29.406Z,2.57
2019-03-18T06:49:59.722Z,2.33
2019-03-18T06:52:32.267Z,1.90
2019-03-18T06:55:04.886Z,1.63
2019-03-18T06:57:35.317Z,1.93
2019-03-18T07:00:11.821Z,2.20
2019-03-18T07:02:42.194Z,2.33
2019-03-18T07:05:12.594Z,2.50
2019-03-18T07:07:43.049Z,1.67
2019-03-18T07:10:16.111Z,2.67
2019-03-18T07:12:46.427Z,2.73
2019-03-18T07:15:16.843Z,2.13
2019-03-18T07:17:47.929Z,2.00
2019-03-18T07:20:18.304Z,2.00
2019-03-18T07:22:49.533Z,2.17
2019-03-18T07:25:20.092Z,1.90
2019-03-18T07:27:50.510Z,1.90
2019-03-18T07:30:20.893Z,1.90
2019-03-18T07:32:51.271Z,2.10
2019-03-18T07:35:22.417Z,2.37
2019-03-18T07:37:52.805Z,2.00
2019-03-18T07:40:23.137Z,2.07
2019-03-18T07:42:53.642Z,2.23
2019-03-18T07:45:24.207Z,2.03
2019-03-18T07:47:55.357Z,2.20
2019-03-18T07:50:27.978Z,2.77
2019-03-18T07:53:00.412Z,2.10
2019-03-18T07:55:31.540Z,2.03
2019-03-18T07:58:01.929Z,2.27
2019-03-18T08:00:34.345Z,1.80
2019-03-18T08:03:04.799Z,2.67
2019-03-18T08:05:35.208Z,1.60
2019-03-18T08:08:05.606Z,1.90
2019-03-18T08:10:36.044Z,1.87
2019-03-18T08:13:08.127Z,2.40
2019-03-18T08:15:38.505Z,2.67
2019-03-18T08:18:28.285Z,2.37
2019-03-18T08:20:58.665Z,2.20
2019-03-18T08:23:29.239Z,3.17
2019-03-18T08:26:01.706Z,2.07
2019-03-18T08:28:32.092Z,2.37
2019-03-18T08:31:03.433Z,2.60
2019-03-18T08:33:33.840Z,2.50
2019-03-18T08:36:04.238Z,2.50
2019-03-18T08:38:34.608Z,2.23
2019-03-18T08:41:07.133Z,1.83
2019-03-18T08:43:37.591Z,2.43
2019-03-18T08:46:08.289Z,2.40
2019-03-18T08:48:38.755Z,2.17
2019-03-18T08:51:09.156Z,2.33
2019-03-18T08:53:39.538Z,1.90
2019-03-18T08:56:09.927Z,1.87
2019-03-18T08:58:59.725Z,2.33
2019-03-18T09:01:30.112Z,1.63
2019-03-18T09:04:00.503Z,2.07
2019-03-18T09:06:31.728Z,2.83
2019-03-18T09:09:02.170Z,2.70
2019-03-18T09:11:32.478Z,2.73
2019-03-18T09:14:03.100Z,2.30
2019-03-18T09:19:16.713Z,2.07
2019-03-18T09:21:47.092Z,2.30
2019-03-18T09:24:17.476Z,1.93
2019-03-18T09:26:47.929Z,1.80
2019-03-18T09:29:38.781Z,1.70
2019-03-18T09:32:09.124Z,2.10
2019-03-18T09:34:40.454Z,2.50
2019-03-18T09:37:10.938Z,2.20
2019-03-18T09:39:41.836Z,2.57
2019-03-18T09:42:12.215Z,2.40
2019-03-18T09:44:43.105Z,3.03
2019-03-18T09:47:14.248Z,2.53
2019-03-18T09:49:44.630Z,2.63
2019-03-18T09:52:15.088Z,2.80
2019-03-18T09:54:45.504Z,2.47
2019-03-18T09:57:25.475Z,2.17
2019-03-18T09:59:46.622Z,2.57
2019-03-18T10:02:23.186Z,2.33
2019-03-18T10:04:57.976Z,2.40
2019-03-18T10:07:29.598Z,3.17
2019-03-18T10:09:59.973Z,2.40
2019-03-18T10:12:30.375Z,2.50
2019-03-18T10:15:00.802Z,2.70
2019-03-18T10:17:31.900Z,2.73
2019-03-18T10:20:03.323Z,2.43
2019-03-18T10:22:35.941Z,2.40
2019-03-18T10:25:04.383Z,2.80
2019-03-18T10:27:34.383Z,2.63
2019-03-18T10:30:05.582Z,2.83
2019-03-18T10:32:55.283Z,3.00
2019-03-18T10:35:25.748Z,3.13
2019-03-18T10:37:56.264Z,2.60
2019-03-18T10:40:26.603Z,2.53
2019-03-18T10:42:57.015Z,2.10
2019-03-18T10:45:27.452Z,2.00
2019-03-18T10:47:58.629Z,3.10
2019-03-18T10:50:29.961Z,2.63
2019-03-18T10:53:00.321Z,2.27
2019-03-18T10:55:30.909Z,2.63
2019-03-18T10:58:24.139Z,2.80
2019-03-18T11:00:54.615Z,2.90
2019-03-18T11:03:24.930Z,2.13
2019-03-18T11:05:55.389Z,2.20
2019-03-18T11:08:25.832Z,2.50
2019-03-18T11:10:57.274Z,2.43
2019-03-18T11:13:27.892Z,2.70
2019-03-18T11:15:58.291Z,2.33
2019-03-18T11:18:28.675Z,2.20
2019-03-18T11:20:59.562Z,2.40
2019-03-18T11:23:29.971Z,2.47
2019-03-18T11:26:00.357Z,2.47
2019-03-18T11:28:30.791Z,2.60
2019-03-18T11:31:01.182Z,2.33
2019-03-18T11:33:31.576Z,2.33
2019-03-18T11:36:02.789Z,2.47
2019-03-18T11:38:33.171Z,2.57
2019-03-18T11:41:03.565Z,2.63
2019-03-18T11:43:33.963Z,2.17
2019-03-18T11:46:04.466Z,2.67
2019-03-18T11:48:35.051Z,2.03
2019-03-18T11:51:05.439Z,2.63
2019-03-18T11:53:55.310Z,1.80
2019-03-18T11:56:25.633Z,1.97
2019-03-18T11:58:56.026Z,1.77
2019-03-18T12:01:26.602Z,1.80
2019-03-18T12:04:02.159Z,1.70
2019-03-18T12:06:54.228Z,1.80
2019-03-18T12:09:24.625Z,1.67
2019-03-18T12:12:02.153Z,2.17
2019-03-18T12:14:33.361Z,1.20
2019-03-18T12:17:25.171Z,2.00
2019-03-18T12:19:57.661Z,2.00
2019-03-18T12:22:47.435Z,2.33
2019-03-18T12:25:19.989Z,2.23
2019-03-18T12:27:50.422Z,2.07
2019-03-18T12:33:10.200Z,1.03
2019-03-18T12:35:41.305Z,1.80
2019-03-18T12:38:11.637Z,1.40
2019-03-18T12:40:42.055Z,1.73
2019-03-18T12:43:12.747Z,1.83
2019-03-18T12:45:43.081Z,1.33
2019-03-18T12:48:14.015Z,1.40
2019-03-18T12:50:55.665Z,1.67
2019-03-18T12:53:16.783Z,1.73
2019-03-18T12:55:47.208Z,1.77
2019-03-18T12:58:18.379Z,1.67
2019-03-18T13:00:48.707Z,1.90
2019-03-18T13:03:19.352Z,1.73
2019-03-18T13:05:49.687Z,2.30
2019-03-18T13:08:21.094Z,2.03
2019-03-18T13:10:52.305Z,2.20
2019-03-18T13:13:22.944Z,2.00
2019-03-18T13:15:53.581Z,2.03
2019-03-18T13:18:24.163Z,2.20
2019-03-18T13:21:07.095Z,1.60
2019-03-18T13:23:24.993Z,2.97
2019-03-18T13:25:56.235Z,2.10
2019-03-18T13:28:27.403Z,2.53
2019-03-18T13:30:57.773Z,1.97
2019-03-18T13:33:29.342Z,2.27
2019-03-18T13:35:59.735Z,2.40
2019-03-18T13:38:38.563Z,2.77
2019-03-18T13:41:15.084Z,3.27
2019-03-18T13:43:46.501Z,2.60
2019-03-18T13:46:18.587Z,2.90
2019-03-18T13:48:47.277Z,2.60
2019-03-18T13:51:21.238Z,3.10
2019-03-18T13:53:48.908Z,2.57
2019-03-18T13:56:19.239Z,2.87
2019-03-18T13:58:55.373Z,2.57
2019-03-18T14:01:25.811Z,2.87
2019-03-18T14:03:56.198Z,2.50
2019-03-18T14:06:26.588Z,2.63
2019-03-18T14:08:56.949Z,3.53
2019-03-18T14:11:28.108Z,2.73
2019-03-18T14:13:59.461Z,2.50
2019-03-18T14:16:29.898Z,2.40
2019-03-18T14:19:00.300Z,2.53
2019-03-18T14:21:33.443Z,2.43
2019-03-18T14:24:08.202Z,2.20
2019-03-18T14:26:38.581Z,2.70
2019-03-18T14:29:09.024Z,2.10
2019-03-18T14:31:39.626Z,2.50
2019-03-18T14:34:09.952Z,2.83
2019-03-18T14:36:40.474Z,2.43
2019-03-18T14:39:11.109Z,1.40
2019-03-18T14:41:46.680Z,1.60
2019-03-18T14:44:17.063Z,1.47
2019-03-18T14:46:47.503Z,1.60
2019-03-18T14:49:17.943Z,1.27
2019-03-18T14:51:48.283Z,1.97
2019-03-18T14:54:18.756Z,1.50
2019-03-18T14:56:49.498Z,1.23
2019-03-18T14:59:19.897Z,1.50
2019-03-18T15:01:51.512Z,1.30
2019-03-18T15:04:22.042Z,1.50
2019-03-18T15:06:52.426Z,1.30
2019-03-18T15:09:22.818Z,1.37
2019-03-18T15:11:53.468Z,1.63
2019-03-18T15:14:27.069Z,1.70
2019-03-18T15:16:57.640Z,2.40
2019-03-18T15:19:27.960Z,1.87
2019-03-18T15:21:58.934Z,1.07
2019-03-18T15:24:33.045Z,1.97
2019-03-18T15:27:03.418Z,1.30
2019-03-18T15:29:33.985Z,1.40
2019-03-18T15:32:06.907Z,1.40
2019-03-18T15:34:37.719Z,1.33
2019-03-18T15:37:08.288Z,0.67
2019-03-18T15:39:44.885Z,1.10
2019-03-18T15:42:15.280Z,0.70
2019-03-18T15:44:45.650Z,0.50
2019-03-18T15:47:16.018Z,0.97
2019-03-18T15:49:46.591Z,0.50
2019-03-18T15:52:16.974Z,0.50
2019-03-18T15:54:53.838Z,0.43
2019-03-18T15:57:29.143Z,0.60
2019-03-18T15:59:52.628Z,0.67
2019-03-18T16:02:23.073Z,0.50
2019-03-18T16:04:54.200Z,0.40
2019-03-18T16:07:25.299Z,0.57
2019-03-18T16:09:55.676Z,1.30
2019-03-18T16:12:26.027Z,0.87
2019-03-18T16:14:56.622Z,0.83
2019-03-18T16:17:27.046Z,1.17
2019-03-18T16:19:58.261Z,1.13
2019-03-18T16:22:48.022Z,1.50
2019-03-18T16:25:24.665Z,1.33
2019-03-18T16:27:54.982Z,1.60
2019-03-18T16:30:26.143Z,1.17
2019-03-18T16:32:57.284Z,1.73
2019-03-18T16:35:29.665Z,1.30
2019-03-18T16:38:00.246Z,1.67
2019-03-18T16:40:32.715Z,2.00
2019-03-18T16:45:47.394Z,1.73
2019-03-18T16:48:17.781Z,1.47
2019-03-18T16:50:48.211Z,1.13
2019-03-18T16:53:20.986Z,1.17
2019-03-18T16:56:08.832Z,1.37
2019-03-18T16:58:39.218Z,1.17
2019-03-18T17:01:09.663Z,1.30
2019-03-18T17:03:40.836Z,1.20
2019-03-18T17:06:12.283Z,1.47
2019-03-18T17:08:43.543Z,1.40
2019-03-18T17:11:18.083Z,2.07
2019-03-18T17:14:09.036Z,1.50
2019-03-18T17:16:39.483Z,1.77
2019-03-18T17:19:09.865Z,1.33
2019-03-18T17:21:40.385Z,1.70
2019-03-18T17:24:10.706Z,1.13
2019-03-18T17:26:41.155Z,1.67
2019-03-18T17:29:11.478Z,1.77
2019-03-18T17:31:41.978Z,1.63
2019-03-18T17:34:12.452Z,1.70
2019-03-18T17:36:42.824Z,1.20
2019-03-18T17:39:19.592Z,1.30
2019-03-18T17:41:52.088Z,1.03
2019-03-18T17:44:22.630Z,1.50
2019-03-18T17:46:53.213Z,1.20
2019-03-18T17:49:23.669Z,1.33
2019-03-18T17:51:54.029Z,1.87
2019-03-18T17:54:24.597Z,2.00
2019-03-18T17:57:06.709Z,1.97
2019-03-18T17:59:25.418Z,1.73
2019-03-18T18:01:56.031Z,1.53
2019-03-18T18:04:26.757Z,1.83
2019-03-18T18:06:57.116Z,1.87
2019-03-18T18:09:27.678Z,1.60
2019-03-18T18:11:58.133Z,2.27
2019-03-18T18:14:28.443Z,2.07
2019-03-18T18:16:58.802Z,2.00
2019-03-18T18:19:29.169Z,2.10
2019-03-18T18:21:59.541Z,2.67
2019-03-18T18:24:36.609Z,1.50
2019-03-18T18:27:14.201Z,1.40
2019-03-18T18:29:44.584Z,1.33
2019-03-18T18:32:15.794Z,1.30
2019-03-18T18:34:46.108Z,1.47
2019-03-18T18:37:35.916Z,2.27
2019-03-18T18:40:17.133Z,3.10
2019-03-18T18:42:48.672Z,3.87
2019-03-18T18:45:21.336Z,4.80
2019-03-18T18:47:51.058Z,5.37
2019-03-18T18:50:21.495Z,4.35
2019-03-18T18:52:51.915Z,3.13
2019-03-18T18:55:23.005Z,2.90
2019-03-18T18:57:53.384Z,2.83
2019-03-18T19:00:23.828Z,3.20
2019-03-18T19:02:54.288Z,3.30
2019-03-18T19:05:28.697Z,3.70
2019-03-18T19:07:59.173Z,2.90
2019-03-18T19:10:29.505Z,2.50
2019-03-18T19:12:59.970Z,2.73
2019-03-18T19:18:14.847Z,2.83
2019-03-18T19:20:45.230Z,3.60
2019-03-18T19:23:15.610Z,4.00
2019-03-18T19:25:46.030Z,3.40
2019-03-18T19:28:16.410Z,3.40
2019-03-18T19:30:46.789Z,3.10
2019-03-18T19:33:17.407Z,3.30
2019-03-18T19:35:48.563Z,3.90
2019-03-18T19:38:18.894Z,3.70
2019-03-18T19:40:49.505Z,4.73
2019-03-18T19:43:20.594Z,3.20
2019-03-18T19:45:50.979Z,3.57
2019-03-18T19:48:22.159Z,3.80
2019-03-18T19:50:56.646Z,4.20
2019-03-18T19:53:27.027Z,4.03
2019-03-18T19:55:57.411Z,3.90
2019-03-18T19:58:29.019Z,3.20
2019-03-18T20:01:09.839Z,3.20
2019-03-18T20:03:38.731Z,3.07
2019-03-18T20:06:09.097Z,3.90
2019-03-18T20:08:39.532Z,4.20
2019-03-18T20:11:09.878Z,3.47
2019-03-18T20:13:40.260Z,5.53
2019-03-18T20:16:10.837Z,3.80
2019-03-18T20:18:42.032Z,4.27
2019-03-18T20:21:14.187Z,4.00
2019-03-18T20:23:44.499Z,3.90
2019-03-18T20:26:15.948Z,3.97
2019-03-18T20:28:46.271Z,4.10
2019-03-18T20:31:25.303Z,4.00
2019-03-18T20:33:47.180Z,4.07
2019-03-18T20:36:17.788Z,4.00
2019-03-18T20:38:49.191Z,4.40
2019-03-18T20:41:19.573Z,4.10
2019-03-18T20:43:57.345Z,4.10
2019-03-18T20:46:27.723Z,5.33
2019-03-18T20:48:58.294Z,5.20
2019-03-18T20:51:29.688Z,4.97
2019-03-18T20:54:12.052Z,4.80
2019-03-18T20:56:37.833Z,4.50
2019-03-18T20:59:08.386Z,4.20
2019-03-18T21:01:39.027Z,3.90
2019-03-18T21:04:09.826Z,4.17
2019-03-18T21:06:40.222Z,4.37
2019-03-18T21:09:14.789Z,4.00
2019-03-18T21:11:45.291Z,4.50
2019-03-18T21:14:17.905Z,3.60
2019-03-18T21:16:48.565Z,3.90
2019-03-18T21:19:19.661Z,4.20
2019-03-18T21:21:50.076Z,3.97
2019-03-18T21:24:39.811Z,3.90
2019-03-18T21:27:10.457Z,4.00
2019-03-18T21:29:41.023Z,4.27
2019-03-18T21:32:11.467Z,4.10
2019-03-18T21:34:41.862Z,3.93
2019-03-18T21:37:15.364Z,4.00
2019-03-18T21:39:53.065Z,4.53
2019-03-18T21:42:27.596Z,4.43
2019-03-18T21:44:57.986Z,4.17
2019-03-18T21:47:28.421Z,3.83
2019-03-18T21:49:58.907Z,4.00
2019-03-18T21:52:29.296Z,4.13
2019-03-18T21:55:02.547Z,4.17
2019-03-18T21:57:37.383Z,3.70
2019-03-18T22:00:22.003Z,3.53
2019-03-18T22:02:52.774Z,3.60
2019-03-18T22:05:23.960Z,3.57
2019-03-18T22:08:01.810Z,3.70
2019-03-18T22:10:32.952Z,4.20
2019-03-18T22:13:04.097Z,3.77
2019-03-18T22:15:35.567Z,3.53
2019-03-18T22:18:05.959Z,3.90
2019-03-18T22:20:36.315Z,4.37
2019-03-18T22:23:06.767Z,4.63
2019-03-18T22:25:37.126Z,4.60
2019-03-18T22:28:08.861Z,4.60
2019-03-18T22:30:43.326Z,4.50
2019-03-18T22:33:13.702Z,4.13
2019-03-18T22:35:44.138Z,4.70
2019-03-18T22:38:19.754Z,4.97
2019-03-18T22:40:50.834Z,4.80
2019-03-18T22:43:41.673Z,4.67
2019-03-18T22:46:13.081Z,4.67
2019-03-18T22:48:43.592Z,4.50
2019-03-18T22:51:13.911Z,4.47
2019-03-18T22:53:44.323Z,4.27
2019-03-18T22:56:14.712Z,4.43
2019-03-18T22:58:46.130Z,4.83
2019-03-18T23:01:16.632Z,4.40
2019-03-18T23:03:47.083Z,4.90
2019-03-18T23:06:17.552Z,4.50
2019-03-18T23:08:49.045Z,4.90
2019-03-18T23:11:19.840Z,4.20
2019-03-18T23:13:50.939Z,4.57
2019-03-18T23:16:21.365Z,4.40
2019-03-18T23:18:51.737Z,3.97
2019-03-18T23:21:22.127Z,4.33
2019-03-18T23:23:52.561Z,4.40
2019-03-18T23:26:22.876Z,5.00
2019-03-18T23:28:53.269Z,4.57
2019-03-18T23:31:23.994Z,4.23
2019-03-18T23:36:38.569Z,4.50
2019-03-18T23:39:09.189Z,4.53
2019-03-18T23:41:39.778Z,4.93
2019-03-18T23:44:10.135Z,4.60
2019-03-18T23:46:59.826Z,5.00
2019-03-18T23:49:30.254Z,5.10
2019-03-18T23:52:00.640Z,4.90
2019-03-18T23:54:31.233Z,5.20
2019-03-18T23:57:01.741Z,4.97
2019-03-18T23:59:32.131Z,5.10
